Time;durP1;ratioP1;P1;durP2;ratioP2;P2;SDS_P1;SDS_P2;PMS_P1;PMS_P2;Temp;Humidity;BMP_temperature;BMP_pressure;BME280_temperature;BME280_humidity;BME280_pressure;Samples;Min_cycle;Max_cycle;Signal;HPM_P1;HPM_P2
2023/10/27 00:02:04;;;;;;;;;;;;;;;29.42;79.13;101131.66;5030272;28;66212;-44
2023/10/27 00:04:34;;;;;;;;;;;;;;;29.43;79.28;101130.66;5034715;28;70021;-43
2023/10/27 00:07:04;;;;;;;;;;;;;;;29.44;80.13;101138.53;5038470;28;65714;-43
2023/10/27 00:09:35;;;;;;;;;;;;;;;29.48;79.98;101144.38;5022934;28;71119;-42
2023/10/27 00:12:07;;;;;;;;;;;;;;;29.50;79.88;101145.00;5038762;28;67005;-44
2023/10/27 00:14:36;;;;;;;;;;;;;;;29.51;79.81;101155.59;5039816;28;69247;-43
2023/10/27 00:17:06;;;;;;;;;;;;;;;29.53;80.52;101161.66;5038814;28;67196;-42
2023/10/27 00:19:36;;;;;;;;;;;;;;;29.55;80.73;101170.38;5039700;28;70731;-43
2023/10/27 00:22:06;;;;;;;;;;;;;;;29.56;80.79;101173.91;5034719;28;65974;-42
2023/10/27 00:24:36;;;;;;;;;;;;;;;29.58;80.55;101169.13;5032832;28;70124;-42
2023/10/27 00:27:05;;;;;;;;;;;;;;;29.60;80.73;101172.47;5039166;28;65941;-44
2023/10/27 00:29:35;;;;;;;;;;;;;;;29.46;80.24;101154.56;5017479;28;71166;-43
2023/10/27 00:32:05;;;;;;;;;;;;;;;29.63;80.85;101177.50;5036997;28;69208;-42
2023/10/27 00:34:38;;;;;;;;;;;;;;;29.63;79.99;101174.78;5036531;28;69839;-45
2023/10/27 00:37:09;;;;;;;;;;;;;;;29.64;80.42;101171.03;5036529;28;67000;-44
2023/10/27 00:39:39;;;;;;;;;;;;;;;29.66;80.26;101177.06;5038841;28;71121;-42
2023/10/27 00:42:09;;;;;;;;;;;;;;;29.67;79.83;101184.19;5034895;28;67136;-41
2023/10/27 00:44:38;;;;;;;;;;;;;;;29.57;80.66;101167.47;5050178;28;70366;-41
2023/10/27 00:47:09;;;;;;;;;;;;;;;29.70;79.60;101183.75;5039828;28;66892;-42
2023/10/27 00:49:38;;;;;;;;;;;;;;;29.72;79.82;101202.47;5038215;28;69239;-41
2023/10/27 00:52:10;;;;;;;;;;;;;;;29.72;79.99;101206.00;5050583;28;66740;-44
2023/10/27 00:54:40;;;;;;;;;;;;;;;29.74;78.34;101212.03;5054133;28;69897;-44
2023/10/27 00:57:11;;;;;;;;;;;;;;;29.78;77.09;101212.44;5041116;28;65994;-45
2023/10/27 00:59:41;;;;;;;;;;;;;;;29.79;76.53;101212.25;5021808;28;70208;-43
2023/10/27 01:02:14;;;;;;;;;;;;;;;29.81;75.80;101215.59;5041384;28;66644;-44
2023/10/27 01:04:43;;;;;;;;;;;;;;;29.84;75.22;101223.31;5029103;28;69972;-45
2023/10/27 01:07:13;;;;;;;;;;;;;;;29.88;75.26;101225.59;5037345;28;66177;-44
2023/10/27 01:09:44;;;;;;;;;;;;;;;29.88;74.75;101220.19;5040586;28;70769;-45
2023/10/27 01:12:14;;;;;;;;;;;;;;;29.90;74.66;101224.34;5038370;28;65495;-45
2023/10/27 01:14:44;;;;;;;;;;;;;;;29.92;74.06;101221.44;5036997;28;70228;-44
2023/10/27 01:17:14;;;;;;;;;;;;;;;29.94;73.82;101222.06;5051907;28;66869;-43
2023/10/27 01:19:45;;;;;;;;;;;;;;;29.95;73.94;101223.72;5038005;28;71443;-43
2023/10/27 01:22:16;;;;;;;;;;;;;;;29.96;73.50;101217.28;5037159;28;66187;-43
2023/10/27 01:24:45;;;;;;;;;;;;;;;29.97;73.99;101210.81;5037155;28;69988;-42
2023/10/27 01:27:16;;;;;;;;;;;;;;;29.99;73.88;101216.88;5038983;28;65156;-43
2023/10/27 01:29:46;;;;;;;;;;;;;;;29.99;73.56;101219.56;5037212;28;71365;-43
2023/10/27 01:32:15;;;;;;;;;;;;;;;30.01;73.29;101222.91;5054995;28;66397;-42
2023/10/27 01:34:45;;;;;;;;;;;;;;;30.03;73.06;101212.69;5039468;28;70600;-42
2023/10/27 01:37:15;;;;;;;;;;;;;;;30.03;73.09;101208.16;5039162;28;67187;-43
2023/10/27 01:39:47;;;;;;;;;;;;;;;30.04;73.01;101211.69;5055295;28;70603;-42
2023/10/27 01:42:17;;;;;;;;;;;;;;;30.05;72.97;101207.91;5039585;28;66726;-43
2023/10/27 01:44:47;;;;;;;;;;;;;;;30.07;73.20;101205.84;5050627;28;70936;-43
2023/10/27 01:47:17;;;;;;;;;;;;;;;30.08;72.54;101196.69;5027225;28;66698;-43
2023/10/27 01:49:46;;;;;;;;;;;;;;;30.09;73.06;101192.97;5034027;28;69755;-44
2023/10/27 01:52:18;;;;;;;;;;;;;;;30.11;72.79;101190.03;5035360;28;66889;-43
2023/10/27 01:54:48;;;;;;;;;;;;;;;30.12;72.65;101197.94;5031254;28;69809;-43
2023/10/27 01:57:17;;;;;;;;;;;;;;;30.14;72.64;101198.56;5039605;28;66556;-44
2023/10/27 01:59:47;;;;;;;;;;;;;;;30.15;72.86;101202.94;5051769;28;70167;-44
2023/10/27 02:02:17;;;;;;;;;;;;;;;30.19;72.43;101190.66;5035415;28;66613;-43
2023/10/27 02:04:47;;;;;;;;;;;;;;;30.20;72.27;101200.44;5036605;28;70785;-43
2023/10/27 02:07:18;;;;;;;;;;;;;;;30.22;72.34;101192.97;5036456;28;66784;-43
2023/10/27 02:09:48;;;;;;;;;;;;;;;30.23;72.44;101183.81;5038571;28;71369;-43
2023/10/27 02:12:18;;;;;;;;;;;;;;;30.26;72.18;101180.69;5035555;28;66163;-43
2023/10/27 02:14:47;;;;;;;;;;;;;;;30.28;72.38;101185.88;5036180;28;69670;-42
2023/10/27 02:17:17;;;;;;;;;;;;;;;30.31;71.89;101179.22;5036757;28;66982;-43
2023/10/27 02:19:47;;;;;;;;;;;;;;;30.33;71.98;101177.16;5036284;28;69185;-44
2023/10/27 02:22:17;;;;;;;;;;;;;;;30.35;72.27;101169.66;5026192;28;66365;-43
2023/10/27 02:24:47;;;;;;;;;;;;;;;30.37;71.68;101170.25;5053467;28;69452;-49
2023/10/27 02:27:17;;;;;;;;;;;;;;;30.38;71.94;101172.78;5036316;28;66837;-42
2023/10/27 02:29:47;;;;;;;;;;;;;;;30.39;72.03;101165.47;5036430;28;70616;-43
2023/10/27 02:32:18;;;;;;;;;;;;;;;30.43;72.02;101166.75;5034827;28;66548;-42
2023/10/27 02:34:48;;;;;;;;;;;;;;;30.45;71.48;101168.19;5035667;28;70364;-43
2023/10/27 02:37:18;;;;;;;;;;;;;;;30.47;71.51;101162.56;5038073;28;66953;-42
2023/10/27 02:39:48;;;;;;;;;;;;;;;30.50;71.88;101156.72;5038559;28;70791;-43
2023/10/27 02:42:18;;;;;;;;;;;;;;;30.51;71.48;101142.16;5053207;28;67079;-44
2023/10/27 02:44:48;;;;;;;;;;;;;;;30.55;71.48;101147.97;5038439;28;69972;-45
2023/10/27 02:47:18;;;;;;;;;;;;;;;30.56;71.72;101150.44;5038555;28;65646;-44
2023/10/27 02:49:48;;;;;;;;;;;;;;;30.59;71.23;101150.06;5033550;28;69583;-42
2023/10/27 02:52:19;;;;;;;;;;;;;;;30.61;71.70;101147.94;5029933;28;66626;-44
2023/10/27 02:54:50;;;;;;;;;;;;;;;30.63;71.27;101145.88;5039208;28;69988;-44
2023/10/27 02:57:20;;;;;;;;;;;;;;;30.65;71.51;101141.06;5032707;28;66960;-42
2023/10/27 02:59:49;;;;;;;;;;;;;;;30.68;71.29;101140.66;5043042;28;69711;-44
2023/10/27 03:02:19;;;;;;;;;;;;;;;30.70;71.26;101130.44;5049170;28;66693;-43
2023/10/27 03:04:51;;;;;;;;;;;;;;;30.72;71.24;101136.44;5037381;28;70065;-45
2023/10/27 03:07:21;;;;;;;;;;;;;;;30.76;71.01;101127.91;5041921;28;66669;-44
2023/10/27 03:09:52;;;;;;;;;;;;;;;30.78;70.91;101128.53;5042064;28;69998;-42
2023/10/27 03:12:21;;;;;;;;;;;;;;;30.81;71.02;101125.41;5041542;28;65914;-44
2023/10/27 03:14:51;;;;;;;;;;;;;;;30.84;70.89;101127.69;5032408;28;69019;-44
2023/10/27 03:17:21;;;;;;;;;;;;;;;30.86;70.62;101120.19;5037389;28;65651;-44
2023/10/27 03:19:51;;;;;;;;;;;;;;;30.88;70.78;101116.22;5037989;28;69012;-43
2023/10/27 03:22:21;;;;;;;;;;;;;;;30.90;70.73;101113.31;5038712;28;66625;-43
2023/10/27 03:24:50;;;;;;;;;;;;;;;30.92;70.71;101111.19;5042751;28;69729;-44
2023/10/27 03:27:21;;;;;;;;;;;;;;;30.93;70.61;101102.88;5040576;28;66874;-45
2023/10/27 03:29:51;;;;;;;;;;;;;;;30.96;70.49;101101.63;5034506;28;70290;-43
2023/10/27 03:32:22;;;;;;;;;;;;;;;30.97;70.58;101103.25;5034968;28;65543;-43
2023/10/27 03:34:52;;;;;;;;;;;;;;;30.99;70.66;101094.94;5032986;28;69083;-44
2023/10/27 03:37:22;;;;;;;;;;;;;;;31.01;70.36;101093.69;5040401;28;66514;-43
2023/10/27 03:39:51;;;;;;;;;;;;;;;31.02;70.31;101095.31;5042867;28;70297;-43
2023/10/27 03:42:21;;;;;;;;;;;;;;;31.04;70.30;101090.53;5027673;28;66776;-43
2023/10/27 03:44:51;;;;;;;;;;;;;;;31.06;70.46;101090.31;5053417;28;70059;-43
2023/10/27 03:47:21;;;;;;;;;;;;;;;31.07;70.08;101081.16;5041724;28;65305;-42
2023/10/27 03:49:51;;;;;;;;;;;;;;;31.09;70.32;101070.91;5041183;28;69319;-43
2023/10/27 03:52:22;;;;;;;;;;;;;;;31.09;70.32;101074.47;5050589;28;66360;-42
2023/10/27 03:54:52;;;;;;;;;;;;;;;31.10;70.10;101065.28;5038813;28;70487;-43
2023/10/27 03:57:22;;;;;;;;;;;;;;;31.12;69.93;101057.75;5029007;28;66560;-44
2023/10/27 03:59:52;;;;;;;;;;;;;;;31.15;69.87;101051.09;5037194;28;69808;-42
2023/10/27 04:02:21;;;;;;;;;;;;;;;31.16;69.84;101048.13;5039509;28;66565;-43
2023/10/27 04:04:51;;;;;;;;;;;;;;;31.19;69.80;101048.75;5032640;28;70118;-43
2023/10/27 04:07:21;;;;;;;;;;;;;;;31.20;69.51;101036.84;5039508;28;66245;-42
2023/10/27 04:09:51;;;;;;;;;;;;;;;31.20;69.69;101026.84;5043008;28;70324;-44
2023/10/27 04:12:21;;;;;;;;;;;;;;;31.22;69.52;101018.50;5039489;28;66144;-49
2023/10/27 04:14:51;;;;;;;;;;;;;;;31.24;69.65;101021.84;5032629;28;69255;-52
2023/10/27 04:17:20;;;;;;;;;;;;;;;31.26;69.79;101017.00;5035307;28;65998;-43
2023/10/27 04:19:50;;;;;;;;;;;;;;;31.27;69.87;101014.09;5033803;28;70378;-43
2023/10/27 04:22:23;;;;;;;;;;;;;;;31.28;69.74;101006.78;5032696;28;66507;-43
2023/10/27 04:24:56;;;;;;;;;;;;;;;31.29;69.85;101003.03;5038918;28;70173;-45
2023/10/27 04:27:28;;;;;;;;;;;;;;;31.30;69.51;100993.84;5032994;28;66776;-43
2023/10/27 04:29:58;;;;;;;;;;;;;;;31.31;69.48;100990.91;5040029;28;69892;-43
2023/10/27 04:32:31;;;;;;;;;;;;;;;31.32;69.55;100981.75;5040851;28;67027;-44
2023/10/27 04:35:02;;;;;;;;;;;;;;;31.34;69.23;100985.06;5037766;28;70675;-42
2023/10/27 04:37:32;;;;;;;;;;;;;;;31.36;69.59;100984.84;5027383;28;66441;-43
2023/10/27 04:40:07;;;;;;;;;;;;;;;31.37;69.64;100978.38;5039910;28;70317;-42
2023/10/27 04:42:40;;;;;;;;;;;;;;;31.38;69.58;100970.03;5035713;28;66563;-43
2023/10/27 04:45:11;;;;;;;;;;;;;;;31.41;69.14;100963.34;5034628;28;70324;-43
2023/10/27 04:47:40;;;;;;;;;;;;;;;31.43;68.98;100968.56;5035618;28;66028;-43
2023/10/27 04:50:13;;;;;;;;;;;;;;;31.45;69.01;100958.31;5041531;28;70284;-43
2023/10/27 04:52:45;;;;;;;;;;;;;;;31.46;68.92;100960.81;5041695;28;65985;-42
2023/10/27 04:55:19;;;;;;;;;;;;;;;31.49;68.97;100954.94;5041202;28;69958;-42
2023/10/27 04:57:49;;;;;;;;;;;;;;;31.51;68.88;100957.41;5041387;28;66011;-43
2023/10/27 05:00:20;;;;;;;;;;;;;;;31.52;68.67;100945.53;5040641;28;69631;-43
2023/10/27 05:02:53;;;;;;;;;;;;;;;31.53;68.84;100945.28;5041401;28;66377;-42
2023/10/27 05:05:28;;;;;;;;;;;;;;;31.54;69.08;100936.13;5041494;28;69263;-43
2023/10/27 05:07:58;;;;;;;;;;;;;;;31.56;68.83;100934.00;5039895;28;66357;-44
2023/10/27 05:10:28;;;;;;;;;;;;;;;31.57;68.92;100930.25;5037347;28;70336;-43
2023/10/27 05:12:58;;;;;;;;;;;;;;;31.58;68.84;100923.75;5040340;28;66022;-44
2023/10/27 05:15:29;;;;;;;;;;;;;;;31.61;68.55;100920.59;5037711;28;69886;-42
2023/10/27 05:18:04;;;;;;;;;;;;;;;31.61;68.73;100920.59;5040089;28;66717;-42
2023/10/27 05:20:40;;;;;;;;;;;;;;;31.64;68.51;100910.34;5037409;28;69966;-42
2023/10/27 05:23:10;;;;;;;;;;;;;;;31.64;68.52;100897.63;5040239;28;66686;-43
2023/10/27 05:25:40;;;;;;;;;;;;;;;31.67;68.68;100902.59;5040095;28;70330;-43
2023/10/27 05:28:10;;;;;;;;;;;;;;;31.70;68.49;100901.31;5037274;28;66589;-43
2023/10/27 05:30:43;;;;;;;;;;;;;;;31.72;68.41;100894.63;5040567;28;70538;-44
2023/10/27 05:33:14;;;;;;;;;;;;;;;31.72;68.23;100894.63;5041463;28;66585;-44
2023/10/27 05:35:43;;;;;;;;;;;;;;;31.76;68.21;100890.41;5054877;28;69628;-44
2023/10/27 05:38:14;;;;;;;;;;;;;;;31.77;68.26;100883.09;5055903;28;67000;-42
2023/10/27 05:40:44;;;;;;;;;;;;;;;31.79;68.25;100881.00;5039716;28;69418;-43
2023/10/27 05:43:17;;;;;;;;;;;;;;;31.81;68.36;100866.13;5039081;28;66696;-42
2023/10/27 05:45:47;;;;;;;;;;;;;;;31.82;68.33;100859.66;5040408;28;70605;-43
2023/10/27 05:48:16;;;;;;;;;;;;;;;31.87;68.22;100858.97;5033259;28;66115;-42
2023/10/27 05:50:46;;;;;;;;;;;;;;;31.88;68.21;100855.22;5038458;28;70620;-43
2023/10/27 05:53:17;;;;;;;;;;;;;;;31.91;68.04;100845.78;5040167;28;67040;-43
2023/10/27 05:55:46;;;;;;;;;;;;;;;31.91;67.96;100846.66;5035529;28;69729;-44
2023/10/27 05:58:16;;;;;;;;;;;;;;;31.93;67.94;100839.13;5028462;28;66834;-43
2023/10/27 06:00:46;;;;;;;;;;;;;;;31.96;67.81;100838.66;5033632;28;70633;-43
2023/10/27 06:03:16;;;;;;;;;;;;;;;31.96;67.87;100830.53;5040510;28;66886;-42
2023/10/27 06:05:46;;;;;;;;;;;;;;;31.97;67.80;100826.72;5035962;28;70074;-44
2023/10/27 06:08:16;;;;;;;;;;;;;;;31.98;67.64;100817.56;5040542;28;66091;-42
2023/10/27 06:10:46;;;;;;;;;;;;;;;32.00;67.42;100820.84;5055046;28;70062;-44
2023/10/27 06:13:16;;;;;;;;;;;;;;;32.01;67.72;100818.97;5037907;28;66895;-42
2023/10/27 06:15:46;;;;;;;;;;;;;;;32.01;67.62;100800.81;5039760;28;70099;-44
2023/10/27 06:18:15;;;;;;;;;;;;;;;32.03;67.66;100798.69;5034895;28;66494;-44
2023/10/27 06:20:45;;;;;;;;;;;;;;;32.04;67.65;100792.22;5025706;28;69116;-43
2023/10/27 06:23:15;;;;;;;;;;;;;;;32.05;67.78;100791.16;5039338;28;66470;-43
2023/10/27 06:25:45;;;;;;;;;;;;;;;32.08;67.52;100783.59;5039126;28;70508;-42
2023/10/27 06:28:15;;;;;;;;;;;;;;;32.10;67.35;100784.22;5038382;28;66518;-42
2023/10/27 06:30:45;;;;;;;;;;;;;;;32.10;67.51;100778.78;5036322;28;70751;-42
2023/10/27 06:33:15;;;;;;;;;;;;;;;32.10;67.26;100770.66;5025600;28;66550;-43
2023/10/27 06:35:46;;;;;;;;;;;;;;;32.12;67.57;100768.50;5041015;28;69371;-42
2023/10/27 06:38:16;;;;;;;;;;;;;;;32.15;67.29;100762.63;5031102;28;66113;-43
2023/10/27 06:40:47;;;;;;;;;;;;;;;32.16;67.25;100753.44;5042493;28;69327;-45
2023/10/27 06:43:17;;;;;;;;;;;;;;;32.17;67.20;100736.06;5027563;28;66995;-43
2023/10/27 06:45:47;;;;;;;;;;;;;;;32.18;67.21;100729.56;5043585;28;70860;-43
2023/10/27 06:48:17;;;;;;;;;;;;;;;32.20;67.12;100722.03;5041290;28;65952;-43
2023/10/27 06:50:48;;;;;;;;;;;;;;;32.21;67.13;100719.09;5041996;28;69759;-42
2023/10/27 06:53:18;;;;;;;;;;;;;;;32.22;67.17;100718.03;5039153;28;66208;-44
2023/10/27 06:55:47;;;;;;;;;;;;;;;32.23;67.04;100719.72;5048107;28;69311;-43
2023/10/27 06:58:17;;;;;;;;;;;;;;;32.25;67.05;100714.03;5039216;28;67508;-42
2023/10/27 07:00:47;;;;;;;;;;;;;;;32.25;67.06;100703.19;5042667;28;70561;-43
2023/10/27 07:03:18;;;;;;;;;;;;;;;32.27;66.88;100695.63;5038723;27;66216;-42
2023/10/27 07:05:59;;;;;;;;;;;;;;;32.30;66.75;100707.91;5041242;28;69348;-42
2023/10/27 07:08:32;;;;;;;;;;;;;;;32.30;66.62;100699.78;5037620;28;66663;-43
2023/10/27 07:11:03;;;;;;;;;;;;;;;32.32;66.63;100698.47;5039118;28;69704;-42
2023/10/27 07:13:33;;;;;;;;;;;;;;;32.34;66.79;100696.34;5034758;28;66235;-43
2023/10/27 07:16:03;;;;;;;;;;;;;;;32.35;66.84;100689.84;5039277;28;69862;-43
2023/10/27 07:18:33;;;;;;;;;;;;;;;32.38;66.58;100692.09;5037825;28;65587;-43
2023/10/27 07:21:06;;;;;;;;;;;;;;;32.41;66.74;100688.91;5038958;28;70319;-42
2023/10/27 07:23:36;;;;;;;;;;;;;;;32.40;66.58;100687.28;5043378;28;66643;-43
2023/10/27 07:26:13;;;;;;;;;;;;;;;32.44;66.53;100685.72;5039588;28;69702;-43
2023/10/27 07:28:43;;;;;;;;;;;;;;;32.47;66.19;100689.88;5041597;28;66579;-42
2023/10/27 07:31:13;;;;;;;;;;;;;;;32.49;66.29;100688.59;5041008;28;70548;-42
2023/10/27 07:33:44;;;;;;;;;;;;;;;32.51;66.31;100679.38;5041347;28;66710;-42
2023/10/27 07:36:14;;;;;;;;;;;;;;;32.52;66.48;100681.03;5032687;28;70617;-42
2023/10/27 07:38:44;;;;;;;;;;;;;;;32.51;66.11;100684.81;5040424;28;66453;-42
2023/10/27 07:41:13;;;;;;;;;;;;;;;32.52;66.18;100683.75;5041673;28;70380;-42
2023/10/27 07:43:43;;;;;;;;;;;;;;;32.53;66.34;100696.25;5042507;28;66857;-42
2023/10/27 07:46:13;;;;;;;;;;;;;;;32.54;66.21;100687.91;5040716;28;70524;-41
2023/10/27 07:48:43;;;;;;;;;;;;;;;32.55;66.36;100691.44;5029378;28;66675;-43
2023/10/27 07:51:13;;;;;;;;;;;;;;;32.56;66.15;100682.22;5041486;28;70394;-42
2023/10/27 07:53:43;;;;;;;;;;;;;;;32.57;66.30;100683.84;5029915;28;66922;-42
2023/10/27 07:56:13;;;;;;;;;;;;;;;32.58;66.06;100680.91;5042004;28;70741;-43
2023/10/27 07:58:43;;;;;;;;;;;;;;;32.59;66.01;100689.88;5033337;28;66685;-43
2023/10/27 08:01:13;;;;;;;;;;;;;;;32.60;65.88;100683.41;5037734;28;69809;-41
2023/10/27 08:03:43;;;;;;;;;;;;;;;32.60;66.13;100680.69;5049555;28;66001;-43
2023/10/27 08:06:13;;;;;;;;;;;;;;;32.61;65.88;100680.44;5042138;28;70289;-43
2023/10/27 08:08:42;;;;;;;;;;;;;;;32.62;65.90;100681.25;5041003;28;66830;-42
2023/10/27 08:11:17;;;;;;;;;;;;;;;32.62;66.05;100686.69;5037550;28;70340;-42
2023/10/27 08:13:47;;;;;;;;;;;;;;;32.63;66.04;100696.50;5033189;28;65736;-42
2023/10/27 08:16:17;;;;;;;;;;;;;;;32.63;66.22;100693.78;5039477;28;70058;-41
2023/10/27 08:18:47;;;;;;;;;;;;;;;32.64;65.97;100684.56;5040611;28;67441;-43
2023/10/27 08:21:17;;;;;;;;;;;;;;;32.64;65.89;100673.72;5038802;28;69640;-46
2023/10/27 08:23:47;;;;;;;;;;;;;;;32.65;65.79;100664.50;5039253;28;66740;-45
2023/10/27 08:26:16;;;;;;;;;;;;;;;32.65;65.77;100670.78;5031801;28;70305;-42
2023/10/27 08:28:46;;;;;;;;;;;;;;;32.65;65.84;100670.78;5036173;28;66088;-43
2023/10/27 08:31:16;;;;;;;;;;;;;;;32.65;65.70;100673.50;5032279;28;70591;-43
2023/10/27 08:33:47;;;;;;;;;;;;;;;32.66;65.90;100668.88;5042896;28;66352;-42
2023/10/27 08:36:19;;;;;;;;;;;;;;;32.65;65.83;100669.91;5033119;28;70415;-43
2023/10/27 08:38:55;;;;;;;;;;;;;;;32.65;65.92;100664.50;5033047;28;67309;-43
2023/10/27 08:41:25;;;;;;;;;;;;;;;32.64;65.92;100662.84;5037708;28;69631;-43
2023/10/27 08:43:55;;;;;;;;;;;;;;;32.65;65.85;100661.78;5034195;28;66205;-42
2023/10/27 08:46:38;;;;;;;;;;;;;;;32.63;65.89;100656.59;5038637;28;71165;-43
2023/10/27 08:49:09;;;;;;;;;;;;;;;32.63;66.10;100648.44;5041490;28;67083;-43
2023/10/27 08:51:39;;;;;;;;;;;;;;;32.63;65.93;100656.59;5038370;28;69941;-43
2023/10/27 08:54:10;;;;;;;;;;;;;;;32.62;65.97;100659.53;5038711;28;66622;-43
2023/10/27 08:56:40;;;;;;;;;;;;;;;32.61;66.25;100658.72;5040440;28;70013;-43
2023/10/27 08:59:10;;;;;;;;;;;;;;;32.61;66.16;100666.03;5039877;28;65987;-44
2023/10/27 09:01:42;;;;;;;;;;;;;;;32.60;66.08;100661.69;5041016;28;69790;-43
2023/10/27 09:04:15;;;;;;;;;;;;;;;32.59;66.10;100666.25;5039124;28;66644;-42
2023/10/27 09:06:45;;;;;;;;;;;;;;;32.59;66.20;100665.44;5041452;28;70728;-43
2023/10/27 09:09:14;;;;;;;;;;;;;;;32.57;66.01;100668.41;5038994;28;67151;-43
2023/10/27 09:11:47;;;;;;;;;;;;;;;32.57;66.12;100681.13;5039934;28;70193;-43
2023/10/27 09:14:20;;;;;;;;;;;;;;;32.56;66.27;100682.22;5038976;28;65130;-42
2023/10/27 09:16:51;;;;;;;;;;;;;;;32.54;66.42;100685.19;5039391;28;69803;-43
2023/10/27 09:19:22;;;;;;;;;;;;;;;32.53;66.47;100688.94;5035710;28;65683;-44
2023/10/27 09:21:52;;;;;;;;;;;;;;;32.53;66.55;100693.56;5040593;28;70302;-42
2023/10/27 09:24:23;;;;;;;;;;;;;;;32.53;67.02;100690.84;5038000;28;66897;-42
2023/10/27 09:26:55;;;;;;;;;;;;;;;32.51;67.32;100701.09;5036918;28;70412;-42
2023/10/27 09:29:26;;;;;;;;;;;;;;;32.47;67.23;100696.13;5025418;28;65454;-42
2023/10/27 09:31:56;;;;;;;;;;;;;;;32.48;67.15;100700.53;5050732;28;70148;-43
2023/10/27 09:34:28;;;;;;;;;;;;;;;32.45;67.74;100687.38;5036070;28;66680;-43
2023/10/27 09:36:59;;;;;;;;;;;;;;;32.44;68.17;100690.34;5039495;28;70357;-42
2023/10/27 09:39:28;;;;;;;;;;;;;;;32.11;68.12;100653.72;5039641;28;67028;-43
2023/10/27 09:42:06;;;;;;;;;;;;;;;32.42;68.18;100698.69;5036549;28;71435;-50
2023/10/27 09:44:54;;;;;;;;;;;;;;;32.43;68.25;100689.50;5037172;28;66838;-44
2023/10/27 09:47:27;;;;;;;;;;;;;;;32.42;68.57;100695.16;5025502;28;69337;-44
2023/10/27 09:50:05;;;;;;;;;;;;;;;32.41;68.57;100690.81;5036009;28;66558;-45
2023/10/27 09:52:39;;;;;;;;;;;;;;;32.39;68.56;100699.16;5053407;28;70384;-44
2023/10/27 09:55:11;;;;;;;;;;;;;;;32.38;68.95;100699.41;5031615;28;66906;-44
2023/10/27 09:57:47;;;;;;;;;;;;;;;32.37;68.78;100695.03;5043858;28;69623;-44
2023/10/27 10:00:19;;;;;;;;;;;;;;;32.36;68.82;100699.66;5038878;28;65388;-44
2023/10/27 10:02:49;;;;;;;;;;;;;;;32.34;69.09;100701.75;5036132;28;70143;-43
2023/10/27 10:05:19;;;;;;;;;;;;;;;32.33;69.32;100694.69;5037884;28;66864;-43
2023/10/27 10:07:52;;;;;;;;;;;;;;;32.32;69.33;100698.47;5031383;28;69931;-44
2023/10/27 10:10:26;;;;;;;;;;;;;;;32.32;69.34;100682.19;5031738;28;66966;-46
2023/10/27 10:13:12;;;;;;;;;;;;;;;32.30;69.40;100689.72;5033159;28;70171;-44
2023/10/27 10:15:43;;;;;;;;;;;;;;;32.31;69.37;100682.41;5039206;28;66629;-44
2023/10/27 10:18:22;;;;;;;;;;;;;;;31.93;71.75;100695.34;5038073;28;70509;-44
2023/10/27 10:20:53;;;;;;;;;;;;;;;31.75;72.72;100695.34;5042058;28;65895;-46
2023/10/27 10:23:40;;;;;;;;;;;;;;;31.65;73.41;100695.06;5037148;28;69111;-46
2023/10/27 10:26:09;;;;;;;;;;;;;;;31.54;74.13;100692.09;5030276;28;66461;-47
2023/10/27 10:28:41;;;;;;;;;;;;;;;31.49;74.57;100700.09;4941806;28;2363132;-43
2023/10/27 10:31:13;;;;;;;;;;;;;;;31.47;74.65;100690.53;5048406;28;65902;-44
2023/10/27 10:33:48;;;;;;;;;;;;;;;31.43;75.18;100695.59;5039345;28;69123;-47
2023/10/27 10:36:22;;;;;;;;;;;;;;;31.42;75.54;100707.47;5037198;28;66192;-46
2023/10/27 10:38:59;;;;;;;;;;;;;;;31.39;75.98;100705.22;5034033;28;70421;-45
2023/10/27 10:41:41;;;;;;;;;;;;;;;31.39;76.05;100694.38;5035894;28;66086;-45
2023/10/27 10:44:15;;;;;;;;;;;;;;;31.37;76.22;100697.34;5039225;28;70356;-45
2023/10/27 10:46:45;;;;;;;;;;;;;;;31.37;77.12;100701.91;5039193;28;66015;-46
2023/10/27 10:49:25;;;;;;;;;;;;;;;31.35;77.25;100693.16;5026703;28;70167;-45
2023/10/27 10:52:01;;;;;;;;;;;;;;;31.34;77.08;100696.91;5037399;28;66573;-44
2023/10/27 10:54:32;;;;;;;;;;;;;;;31.33;77.58;100706.09;5051880;28;70346;-46
2023/10/27 10:57:03;;;;;;;;;;;;;;;31.33;77.47;100712.34;5039774;28;65907;-48
2023/10/27 10:59:33;;;;;;;;;;;;;;;31.34;78.00;100724.00;5036883;28;70292;-44
2023/10/27 11:02:04;;;;;;;;;;;;;;;31.32;77.86;100721.53;5031219;28;65691;-43
2023/10/27 11:04:34;;;;;;;;;;;;;;;31.32;78.22;100726.16;5025105;28;69056;-44
2023/10/27 11:07:09;;;;;;;;;;;;;;;31.30;78.29;100734.50;5039500;28;66755;-44
2023/10/27 11:09:39;;;;;;;;;;;;;;;31.31;78.12;100746.97;5032052;28;69517;-44
2023/10/27 11:12:23;;;;;;;;;;;;;;;31.29;78.57;100749.09;5043041;28;66626;-44
2023/10/27 11:14:53;;;;;;;;;;;;;;;31.28;78.50;100757.44;5039209;28;70482;-45
2023/10/27 11:17:23;;;;;;;;;;;;;;;31.27;78.36;100772.06;5039327;28;66252;-45
2023/10/27 11:19:53;;;;;;;;;;;;;;;31.25;78.83;100774.16;5037369;28;70153;-44
2023/10/27 11:22:24;;;;;;;;;;;;;;;31.25;78.95;100774.16;5040434;28;66235;-45
2023/10/27 11:24:55;;;;;;;;;;;;;;;31.23;79.14;100776.25;5042632;28;70036;-44
2023/10/27 11:27:26;;;;;;;;;;;;;;;31.23;78.89;100776.25;5034647;28;66657;-43
2023/10/27 11:30:00;;;;;;;;;;;;;;;31.21;79.44;100779.22;5034471;28;69663;-43
2023/10/27 11:32:31;;;;;;;;;;;;;;;31.20;79.42;100782.97;5041996;28;66056;-44
2023/10/27 11:35:01;;;;;;;;;;;;;;;31.21;79.92;100783.81;5042567;28;69675;-44
2023/10/27 11:37:32;;;;;;;;;;;;;;;31.22;79.60;100790.88;5042542;28;66888;-43
2023/10/27 11:40:13;;;;;;;;;;;;;;;31.19;79.96;100792.16;5010718;28;69152;-45
2023/10/27 11:42:43;;;;;;;;;;;;;;;31.19;80.51;100788.63;5038024;28;66890;-43
2023/10/27 11:45:15;;;;;;;;;;;;;;;31.20;80.52;100801.09;5040460;28;70183;-44
2023/10/27 11:47:45;;;;;;;;;;;;;;;31.20;80.70;100803.81;5039629;28;65714;-42
2023/10/27 11:50:14;;;;;;;;;;;;;;;31.19;80.92;100811.13;5037727;28;69822;-43
2023/10/27 11:52:45;;;;;;;;;;;;;;;31.17;80.62;100814.06;5043395;28;65491;-43
2023/10/27 11:55:15;;;;;;;;;;;;;;;31.23;80.31;100814.19;5040389;28;69564;-44
2023/10/27 11:57:44;;;;;;;;;;;;;;;31.34;79.45;100821.59;5040465;28;66830;-43
2023/10/27 12:00:15;;;;;;;;;;;;;;;31.42;79.07;100818.63;5040893;28;70304;-44
2023/10/27 12:02:45;;;;;;;;;;;;;;;31.50;78.52;100833.75;5040653;28;66489;-44
2023/10/27 12:05:15;;;;;;;;;;;;;;;31.55;77.86;100845.56;5042247;28;70194;-44
2023/10/27 12:07:45;;;;;;;;;;;;;;;31.61;77.95;100852.81;5040159;28;65983;-44
2023/10/27 12:10:15;;;;;;;;;;;;;;;31.65;77.14;100846.94;5041693;28;70309;-45
2023/10/27 12:12:45;;;;;;;;;;;;;;;31.70;77.29;100849.78;5041164;28;66585;-45
2023/10/27 12:15:15;;;;;;;;;;;;;;;31.73;77.00;100862.91;5042193;28;69681;-44
2023/10/27 12:17:47;;;;;;;;;;;;;;;31.74;77.21;100859.16;5024416;28;66419;-45
2023/10/27 12:20:17;;;;;;;;;;;;;;;31.76;77.03;100873.28;5040857;28;70458;-45
2023/10/27 12:22:47;;;;;;;;;;;;;;;31.78;76.86;100876.59;5040745;28;66573;-45
2023/10/27 12:25:17;;;;;;;;;;;;;;;31.80;76.68;100877.22;5051179;28;70067;-45
2023/10/27 12:27:47;;;;;;;;;;;;;;;31.80;76.53;100883.47;5040920;28;66906;-45
2023/10/27 12:30:17;;;;;;;;;;;;;;;31.82;76.55;100888.69;5042583;28;69857;-44
2023/10/27 12:32:47;;;;;;;;;;;;;;;31.81;77.33;100881.56;5041234;28;66778;-44
2023/10/27 12:35:23;;;;;;;;;;;;;;;31.65;79.14;100883.03;5032021;28;69076;-43
2023/10/27 12:37:53;;;;;;;;;;;;;;;31.60;79.68;100886.41;5041809;28;66733;-44
2023/10/27 12:40:24;;;;;;;;;;;;;;;31.54;80.10;100892.75;5041368;28;70425;-44
2023/10/27 12:42:54;;;;;;;;;;;;;;;31.54;80.11;100898.16;5041936;28;67338;-44
2023/10/27 12:45:24;;;;;;;;;;;;;;;31.51;80.67;100898.63;5041423;28;69711;-45
2023/10/27 12:47:55;;;;;;;;;;;;;;;31.50;80.30;100915.91;5042004;28;66610;-44
2023/10/27 12:50:26;;;;;;;;;;;;;;;31.47;80.74;100919.06;5034792;28;69968;-45
2023/10/27 12:52:56;;;;;;;;;;;;;;;31.46;80.67;100917.44;5038255;28;66048;-46
2023/10/27 12:55:26;;;;;;;;;;;;;;;31.47;80.22;100921.78;5036798;28;69979;-44